ロサンゼルス の空港の天気 - METARとTAF

ロサンゼルス国際空港 ( KLAX / LAX ) - アメリカ カリフォルニア州ロサンゼルス
飛行場実況気象(Metar)
観測時間04/21 07:53 PDT (04/21 14:53 UTC)
風向・風速西 2m/s
視程10km以上
天気現象
全天の4割程度の雲 雲底高度 460m
全天の8割程度の雲 雲底高度 820m
全天の8割程度の雲 雲底高度 1130m
気温13.9℃
湿度80%
気圧1016.6hPa
METARKLAX 211453Z 26003KT 8SM SCT015 BKN027 BKN037 14/11 A3002 RMK AO2 SLP166 T01390106 53007
過去の天気等 Google飛行場航空写真 Wunderground天気予報

過去48時間のMETAR

飛行場予報(TAF)
発表時間: 4/21 08:03 PDT (4/21 15:03 UTC)
予報対象時間: 21日8時 PDT ~ 22日11時 PDT
風向・風速南西 2m/s
視程10km以上
全天の4割程度の雲 雲底高度 460m
全天の8割程度の雲 雲底高度 790m
全天の8割程度の雲 雲底高度 1070m
21日12時 PDT から
風向・風速西南西 5m/s
視程10km以上
全天の8割程度の雲 雲底高度 1070m
21日14時 PDT から
風向・風速西南西 6m/s
視程10km以上
全天の4割程度の雲 雲底高度 1220m
21日21時 PDT から
風向・風速西南西 3m/s
視程10km以上
なし
22日0時 PDT から
風向・風速不定 2m/s
視程10km以上
なし
22日4時 PDT から
風向・風速不定 2m/s
視程10km以上
全天の8割程度の雲 雲底高度 460m
KLAX 211503Z 2115/2218 22003KT P6SM SCT015 BKN026 BKN035
FM211900 25010KT P6SM BKN035
FM212100 25012KT P6SM SCT040
FM220400 25006KT P6SM SKC
FM220700 VRB03KT P6SM SKC
FM221100 VRB03KT P6SM BKN015